Terminal Aerodrome Forecast
Issued by NWS Springfield, MO

Home | Current Version | Previous Version | Text Only | Print | Product List | Glossary On
Versions: 1 2 3 4 5 6 7 8 9 10 11 12 13 14
000
FTUS43 KSGF 262300
TAFSGF
TAF
KSGF 262320Z 2700/2724 32012KT P6SM SKC
     FM270600 VRB03KT P6SM OVC050
     FM270800 VRB03KT P6SM OVC030
      TEMPO 2708/2712 -RASN OVC020
     FM271200 02010KT P6SM BKN020
     FM271700 36010KT P6SM BKN050 BKN250=

USA.gov is the U.S. government's official web portal to all federal, state and local government web resources and services.